createdAt,value
2022-12-27T00:01:22.010Z,101265.09
2022-12-27T00:03:48.708Z,101264.53
2022-12-27T00:06:18.610Z,101262.53
2022-12-27T00:08:45.539Z,101267.91
2022-12-27T00:11:15.240Z,101259.75
2022-12-27T00:13:41.878Z,101267.88
2022-12-27T00:16:11.071Z,101262.56
2022-12-27T00:18:38.573Z,101260.59
2022-12-27T00:21:06.312Z,101267.63
2022-12-27T00:23:36.331Z,101278.28
2022-12-27T00:26:09.042Z,101283.34
2022-12-27T00:28:35.596Z,101282.50
2022-12-27T00:31:02.744Z,101288.41
2022-12-27T00:33:30.598Z,101289.81
2022-12-27T00:35:59.227Z,101288.09
2022-12-27T00:38:25.737Z,101294.56
2022-12-27T00:40:52.083Z,101303.50
2022-12-27T00:43:18.501Z,101302.63
2022-12-27T00:45:45.569Z,101303.19
2022-12-27T00:48:12.346Z,101308.19
2022-12-27T00:50:42.990Z,101313.47
2022-12-27T00:53:10.179Z,101315.72
2022-12-27T00:55:36.606Z,101311.22
2022-12-27T00:58:03.284Z,101317.97
2022-12-27T01:00:29.742Z,101310.66
2022-12-27T01:02:56.371Z,101318.47
2022-12-27T01:05:23.981Z,101320.41
2022-12-27T01:07:50.310Z,101324.91
2022-12-27T01:10:16.750Z,101333.59
2022-12-27T01:12:43.151Z,101336.41
2022-12-27T01:15:09.946Z,101334.13
2022-12-27T01:17:36.389Z,101339.16
2022-12-27T01:20:02.973Z,101339.16
2022-12-27T01:22:29.460Z,101337.75
2022-12-27T01:24:55.950Z,101339.38
2022-12-27T01:27:22.336Z,101339.06
2022-12-27T01:29:48.700Z,101348.91
2022-12-27T01:32:15.084Z,101348.66
2022-12-27T01:34:41.492Z,101346.38
2022-12-27T01:37:07.865Z,101356.09
2022-12-27T01:39:34.230Z,101365.44
2022-12-27T01:42:18.846Z,101364.84
2022-12-27T01:44:51.522Z,101366.00
2022-12-27T01:47:29.853Z,101362.28
2022-12-27T01:50:30.592Z,101362.22
2022-12-27T01:53:03.030Z,101366.59
2022-12-27T01:55:43.714Z,101370.69
2022-12-27T01:58:23.443Z,101380.00
2022-12-27T02:00:50.536Z,101375.66
2022-12-27T02:03:25.403Z,101373.13
2022-12-27T02:05:51.877Z,101373.53
2022-12-27T02:08:27.833Z,101373.03
2022-12-27T02:10:55.600Z,101379.91
2022-12-27T02:13:22.135Z,101377.47
2022-12-27T02:15:48.559Z,101391.13
2022-12-27T02:18:15.359Z,101393.84
2022-12-27T02:21:20.250Z,101399.25
2022-12-27T02:24:05.149Z,101394.34
2022-12-27T02:26:44.782Z,101393.38
2022-12-27T02:29:35.792Z,101397.94
2022-12-27T02:32:06.937Z,101388.63
2022-12-27T02:34:55.927Z,101402.25
2022-12-27T02:37:25.315Z,101393.16
2022-12-27T02:39:51.854Z,101389.91
2022-12-27T02:42:37.877Z,101403.47
2022-12-27T02:45:25.474Z,101401.81
2022-12-27T02:48:10.655Z,101403.53
2022-12-27T02:51:10.692Z,101407.63
2022-12-27T02:53:52.409Z,101416.03
2022-12-27T02:56:46.592Z,101422.19
2022-12-27T03:00:05.213Z,101419.56
2022-12-27T03:02:58.284Z,101423.78
2022-12-27T03:05:29.947Z,101426.78
2022-12-27T03:08:11.563Z,101413.69
2022-12-27T03:11:18.517Z,101402.44
2022-12-27T03:14:46.641Z,101400.75
2022-12-27T03:17:23.527Z,101390.72
2022-12-27T03:20:10.703Z,101391.63
2022-12-27T03:22:56.108Z,101398.97
2022-12-27T03:25:28.959Z,101391.63
2022-12-27T03:28:18.617Z,101401.06
2022-12-27T03:31:05.855Z,101398.31
2022-12-27T03:33:33.344Z,101395.47
2022-12-27T03:36:23.490Z,101410.03
2022-12-27T03:38:55.728Z,101405.09
2022-12-27T03:41:48.458Z,101415.81
2022-12-27T03:44:24.498Z,101412.84
2022-12-27T03:47:07.329Z,101413.16
2022-12-27T03:49:39.092Z,101419.66
2022-12-27T03:52:13.397Z,101425.91
2022-12-27T03:54:41.417Z,101420.03
2022-12-27T03:57:14.249Z,101420.97
2022-12-27T03:59:40.708Z,101418.19
2022-12-27T04:02:07.414Z,101412.31
2022-12-27T04:04:33.984Z,101412.47
2022-12-27T04:07:00.425Z,101424.72
2022-12-27T04:09:45.880Z,101417.22
2022-12-27T04:12:31.038Z,101425.34
2022-12-27T04:15:15.831Z,101415.19
2022-12-27T04:18:01.267Z,101410.06
2022-12-27T04:20:46.012Z,101411.81
2022-12-27T04:23:31.322Z,101418.53
2022-12-27T04:26:16.556Z,101415.47
2022-12-27T04:29:01.104Z,101422.22
2022-12-27T04:31:46.442Z,101416.31
2022-12-27T04:34:31.568Z,101419.38
2022-12-27T04:36:57.964Z,101408.09
2022-12-27T04:39:24.351Z,101409.06
2022-12-27T04:42:08.991Z,101414.63
2022-12-27T04:44:53.735Z,101417.81
2022-12-27T04:47:40.551Z,101412.06
2022-12-27T04:50:32.909Z,101418.91
2022-12-27T04:53:17.821Z,101416.38
2022-12-27T04:55:44.205Z,101415.72
2022-12-27T04:58:10.622Z,101413.97
2022-12-27T05:00:55.612Z,101424.00
2022-12-27T05:03:23.261Z,101415.44
2022-12-27T05:05:51.255Z,101424.78
2022-12-27T05:08:37.948Z,101428.41
2022-12-27T05:11:23.565Z,101427.28
2022-12-27T05:14:01.845Z,101429.56
2022-12-27T05:16:39.682Z,101446.56
2022-12-27T05:19:08.523Z,101448.50
2022-12-27T05:21:36.738Z,101455.41
2022-12-27T05:24:21.675Z,101439.78
2022-12-27T05:26:48.156Z,101454.63
2022-12-27T05:29:14.501Z,101455.13
2022-12-27T05:31:40.955Z,101449.72
2022-12-27T05:34:07.393Z,101447.72
2022-12-27T05:36:34.079Z,101449.59
2022-12-27T05:39:00.438Z,101457.25
2022-12-27T05:41:26.784Z,101469.81
2022-12-27T05:43:53.116Z,101477.63
2022-12-27T05:46:21.447Z,101474.84
2022-12-27T05:48:48.084Z,101478.88
2022-12-27T05:51:19.253Z,101476.94
2022-12-27T05:53:46.120Z,101484.75
2022-12-27T05:56:18.068Z,101480.06
2022-12-27T05:58:44.904Z,101483.84
2022-12-27T06:01:16.586Z,101484.69
2022-12-27T06:03:43.291Z,101478.53
2022-12-27T06:06:10.063Z,101486.09
2022-12-27T06:08:37.629Z,101481.34
2022-12-27T06:11:10.241Z,101491.00
2022-12-27T06:13:37.430Z,101496.03
2022-12-27T06:16:05.211Z,101497.84
2022-12-27T06:18:33.171Z,101495.38
2022-12-27T06:21:10.909Z,101508.31
2022-12-27T06:23:38.979Z,101509.63
2022-12-27T06:26:10.899Z,101508.00
2022-12-27T06:28:37.298Z,101507.47
2022-12-27T06:31:03.877Z,101502.91
2022-12-27T06:33:30.807Z,101502.66
2022-12-27T06:35:57.685Z,101502.34
2022-12-27T06:38:24.100Z,101508.78
2022-12-27T06:40:50.436Z,101508.97
2022-12-27T06:43:16.768Z,101525.38
2022-12-27T06:45:43.154Z,101525.97
2022-12-27T06:48:09.592Z,101526.31
2022-12-27T06:50:36.822Z,101529.97
2022-12-27T06:53:03.327Z,101522.50
2022-12-27T06:55:29.661Z,101514.09
2022-12-27T06:57:56.204Z,101517.88
2022-12-27T07:00:22.686Z,101518.50
2022-12-27T07:02:49.136Z,101513.13
2022-12-27T07:05:15.807Z,101513.03
2022-12-27T07:07:42.301Z,101522.47
2022-12-27T07:10:09.071Z,101522.88
2022-12-27T07:12:36.945Z,101530.44
2022-12-27T07:15:05.481Z,101524.06
2022-12-27T07:17:31.751Z,101522.03
2022-12-27T07:19:58.101Z,101532.47
2022-12-27T07:22:24.481Z,101535.88
2022-12-27T07:24:50.877Z,101546.22
2022-12-27T07:27:17.218Z,101545.09
2022-12-27T07:29:45.843Z,101557.31
2022-12-27T07:32:12.367Z,101559.75
2022-12-27T07:34:38.809Z,101564.59
2022-12-27T07:37:05.382Z,101555.88
2022-12-27T07:39:31.754Z,101548.31
2022-12-27T07:42:01.886Z,101552.81
2022-12-27T07:44:31.198Z,101548.91
2022-12-27T07:46:57.587Z,101550.63
2022-12-27T07:49:23.984Z,101552.31
2022-12-27T07:51:50.371Z,101557.91
2022-12-27T07:54:16.795Z,101553.66
2022-12-27T07:56:43.130Z,101560.72
2022-12-27T07:59:11.869Z,101573.25
2022-12-27T08:02:01.644Z,101567.91
2022-12-27T08:04:28.734Z,101567.91
2022-12-27T08:06:57.016Z,101577.16
2022-12-27T08:09:25.908Z,101575.19
2022-12-27T08:11:52.266Z,101579.44
2022-12-27T08:14:18.892Z,101578.69
2022-12-27T08:16:45.429Z,101582.25
2022-12-27T08:19:11.828Z,101590.47
2022-12-27T08:21:39.054Z,101594.72
2022-12-27T08:24:05.643Z,101592.25
2022-12-27T08:26:32.049Z,101588.19
2022-12-27T08:28:58.452Z,101582.66
2022-12-27T08:31:24.830Z,101594.19
2022-12-27T08:33:56.559Z,101593.94
2022-12-27T08:39:12.020Z,101609.13
2022-12-27T08:41:38.852Z,101615.28
2022-12-27T08:44:05.476Z,101613.28
2022-12-27T08:46:32.104Z,101609.41
2022-12-27T08:48:58.538Z,101615.38
2022-12-27T08:51:33.116Z,101605.06
2022-12-27T08:54:05.218Z,101605.47
2022-12-27T08:56:31.671Z,101604.16
2022-12-27T08:58:58.051Z,101596.75
2022-12-27T09:01:25.829Z,101609.59
2022-12-27T09:03:52.441Z,101606.91
2022-12-27T09:06:21.030Z,101600.34
2022-12-27T09:08:48.994Z,101599.25
2022-12-27T09:11:26.642Z,101597.16
2022-12-27T09:13:53.166Z,101599.44
2022-12-27T09:16:21.487Z,101606.75
2022-12-27T09:18:51.001Z,101603.41
2022-12-27T09:21:18.478Z,101614.41
2022-12-27T09:23:45.423Z,101608.63
2022-12-27T09:26:20.599Z,101604.78
2022-12-27T09:28:48.344Z,101605.97
2022-12-27T09:31:16.187Z,101615.03
2022-12-27T09:33:43.130Z,101615.06
2022-12-27T09:36:23.092Z,101613.44
2022-12-27T09:38:51.596Z,101626.44
2022-12-27T09:44:58.124Z,101621.47
2022-12-27T09:47:51.472Z,101622.66
2022-12-27T09:50:23.638Z,101632.25
2022-12-27T09:53:06.208Z,101631.78
2022-12-27T09:55:38.641Z,101634.66
2022-12-27T09:58:18.759Z,101630.22
2022-12-27T10:00:46.482Z,101629.41
2022-12-27T10:03:13.027Z,101629.13
2022-12-27T10:05:39.800Z,101641.53
2022-12-27T10:08:25.308Z,101630.69
2022-12-27T10:11:01.892Z,101638.28
2022-12-27T10:13:51.469Z,101629.00
2022-12-27T10:16:30.069Z,101626.19
2022-12-27T10:19:10.086Z,101628.13
2022-12-27T10:21:40.386Z,101628.69
2022-12-27T10:24:19.727Z,101626.22
2022-12-27T10:26:46.107Z,101626.56
2022-12-27T10:29:23.842Z,101622.91
2022-12-27T10:31:50.688Z,101621.00
2022-12-27T10:34:23.870Z,101624.47
2022-12-27T10:36:52.185Z,101618.25
2022-12-27T10:39:27.520Z,101613.19
2022-12-27T10:42:05.467Z,101622.47
2022-12-27T10:44:31.931Z,101618.25
2022-12-27T10:46:59.317Z,101618.84
2022-12-27T10:49:30.276Z,101620.53
2022-12-27T10:52:18.279Z,101610.13
2022-12-27T10:54:52.750Z,101609.56
2022-12-27T10:57:34.628Z,101609.84
2022-12-27T11:00:16.552Z,101611.28
2022-12-27T11:03:03.085Z,101619.19
2022-12-27T11:05:31.240Z,101607.66
2022-12-27T11:07:57.584Z,101620.59
2022-12-27T11:10:26.667Z,101606.22
2022-12-27T11:13:06.846Z,101616.38
2022-12-27T11:15:40.034Z,101613.00
2022-12-27T11:18:17.562Z,101612.44
2022-12-27T11:20:49.414Z,101616.09
2022-12-27T11:23:18.387Z,101609.31
2022-12-27T11:25:56.130Z,101605.63
2022-12-27T11:28:28.947Z,101611.00
2022-12-27T11:31:04.432Z,101613.50
2022-12-27T11:33:39.776Z,101601.38
2022-12-27T11:36:08.135Z,101610.41
2022-12-27T11:38:36.166Z,101596.59
2022-12-27T11:41:05.152Z,101605.94
2022-12-27T11:43:36.673Z,101607.03
2022-12-27T11:46:06.167Z,101596.63
2022-12-27T11:48:42.364Z,101605.66
2022-12-27T11:51:43.345Z,101605.66
2022-12-27T11:54:31.439Z,101600.28
2022-12-27T11:57:27.051Z,101598.56
2022-12-27T12:00:16.443Z,101601.13
2022-12-27T12:03:10.636Z,101593.50
2022-12-27T12:05:48.303Z,101587.50
2022-12-27T12:08:21.331Z,101577.56
2022-12-27T12:11:12.702Z,101583.72
2022-12-27T12:13:57.743Z,101577.81
2022-12-27T12:16:32.848Z,101585.41
2022-12-27T12:19:08.051Z,101581.13
2022-12-27T12:21:37.493Z,101580.00
2022-12-27T12:24:32.531Z,101581.38
2022-12-27T12:27:27.060Z,101583.31
2022-12-27T12:30:27.215Z,101589.00
2022-12-27T12:33:23.690Z,101589.22
2022-12-27T12:36:08.826Z,101581.69
2022-12-27T12:38:45.664Z,101582.75
2022-12-27T12:41:43.459Z,101582.59
2022-12-27T12:44:41.552Z,101571.25
2022-12-27T12:47:45.748Z,101576.69
2022-12-27T12:50:21.484Z,101564.31
2022-12-27T12:53:00.759Z,101567.47
2022-12-27T12:55:45.494Z,101561.81
2022-12-27T12:58:26.954Z,101563.53
2022-12-27T13:01:04.925Z,101567.78
2022-12-27T13:03:31.256Z,101565.78
2022-12-27T13:06:34.779Z,101564.66
2022-12-27T13:09:17.858Z,101570.03
2022-12-27T13:12:04.594Z,101564.97
2022-12-27T13:14:41.389Z,101564.41
2022-12-27T13:17:19.504Z,101568.31
2022-12-27T13:20:02.092Z,101562.06
2022-12-27T13:22:48.339Z,101560.66
2022-12-27T13:25:17.665Z,101560.06
2022-12-27T13:28:21.663Z,101561.78
2022-12-27T13:31:01.811Z,101555.00
2022-12-27T13:33:37.461Z,101547.38
2022-12-27T13:36:31.626Z,101547.03
2022-12-27T13:39:27.728Z,101542.22
2022-12-27T13:41:54.114Z,101539.91
2022-12-27T13:44:41.602Z,101542.44
2022-12-27T13:47:29.292Z,101529.44
2022-12-27T13:50:14.789Z,101522.53
2022-12-27T13:52:44.172Z,101521.16
2022-12-27T13:55:22.670Z,101517.75
2022-12-27T13:58:28.076Z,101521.50
2022-12-27T14:01:13.078Z,101518.72
2022-12-27T14:04:01.171Z,101518.44
2022-12-27T14:06:33.937Z,101521.00
2022-12-27T14:09:10.647Z,101519.00
2022-12-27T14:11:47.893Z,101524.88
2022-12-27T14:14:16.410Z,101531.63
2022-12-27T14:16:59.092Z,101529.94
2022-12-27T14:19:50.780Z,101519.28
2022-12-27T14:22:35.780Z,101518.44
2022-12-27T14:25:14.157Z,101519.28
2022-12-27T14:27:52.556Z,101521.50
2022-12-27T14:30:21.837Z,101522.66
2022-12-27T14:32:59.808Z,101519.84
2022-12-27T14:36:23.732Z,101526.28
2022-12-27T14:39:15.104Z,101534.25
2022-12-27T14:42:20.159Z,101521.00
2022-12-27T14:45:15.361Z,101525.56
2022-12-27T14:48:01.298Z,101518.53
2022-12-27T14:51:14.900Z,101520.50
2022-12-27T14:54:06.605Z,101526.78
2022-12-27T14:56:37.087Z,101540.59
2022-12-27T14:59:29.692Z,101536.34
2022-12-27T15:02:20.481Z,101536.34
2022-12-27T15:04:56.363Z,101551.59
2022-12-27T15:07:40.713Z,101543.69
2022-12-27T15:10:21.874Z,101546.53
2022-12-27T15:12:51.185Z,101544.00
2022-12-27T15:15:41.628Z,101545.41
2022-12-27T15:18:32.429Z,101532.75
2022-12-27T15:21:22.822Z,101535.59
2022-12-27T15:23:52.719Z,101528.81
2022-12-27T15:26:40.632Z,101535.03
2022-12-27T15:29:22.099Z,101539.59
2022-12-27T15:32:28.320Z,101548.06
2022-12-27T15:35:20.699Z,101547.81
2022-12-27T15:37:46.977Z,101537.66
2022-12-27T15:40:25.458Z,101543.28
2022-12-27T15:43:05.564Z,101540.47
2022-12-27T15:45:48.582Z,101535.97
2022-12-27T15:48:26.846Z,101531.78
2022-12-27T15:50:54.104Z,101535.72
2022-12-27T15:53:28.736Z,101530.09
2022-12-27T15:56:16.867Z,101532.06
2022-12-27T15:58:43.602Z,101537.44
2022-12-27T16:01:20.437Z,101532.09
2022-12-27T16:03:52.511Z,101539.13
2022-12-27T16:06:34.193Z,101531.25
2022-12-27T16:09:25.428Z,101538.84
2022-12-27T16:12:07.056Z,101531.53
2022-12-27T16:14:38.577Z,101525.63
2022-12-27T16:17:31.415Z,101518.03
2022-12-27T16:20:16.538Z,101520.84
2022-12-27T16:22:54.653Z,101511.84
2022-12-27T16:25:31.170Z,101500.28
2022-12-27T16:28:01.106Z,101509.03
2022-12-27T16:30:44.302Z,101512.13
2022-12-27T16:33:25.999Z,101511.56
2022-12-27T16:36:29.966Z,101515.53
2022-12-27T16:38:59.159Z,101515.25
2022-12-27T16:41:25.393Z,101515.53
2022-12-27T16:44:03.975Z,101518.63
2022-12-27T16:46:30.256Z,101511.84
2022-12-27T16:49:23.699Z,101512.41
2022-12-27T16:52:27.885Z,101524.25
2022-12-27T16:55:11.735Z,101509.34
2022-12-27T16:57:43.069Z,101510.72
2022-12-27T17:00:21.603Z,101509.06
2022-12-27T17:02:48.054Z,101521.16
2022-12-27T17:05:14.282Z,101521.69
2022-12-27T17:07:52.469Z,101509.28
2022-12-27T17:10:25.042Z,101506.50
2022-12-27T17:12:59.209Z,101507.88
2022-12-27T17:15:25.999Z,101508.72
2022-12-27T17:17:55.140Z,101507.88
2022-12-27T17:20:21.909Z,101507.88
2022-12-27T17:22:50.324Z,101508.16
2022-12-27T17:25:22.727Z,101503.94
2022-12-27T17:28:09.643Z,101517.72
2022-12-27T17:30:54.638Z,101502.81
2022-12-27T17:33:20.891Z,101496.34
2022-12-27T17:36:05.996Z,101489.88
2022-12-27T17:38:51.321Z,101484.25
2022-12-27T17:41:57.906Z,101479.19
2022-12-27T17:44:40.035Z,101479.75
2022-12-27T17:47:26.928Z,101477.50
2022-12-27T17:49:53.736Z,101468.75
2022-12-27T17:52:43.570Z,101469.31
2022-12-27T17:55:35.856Z,101467.63
2022-12-27T17:58:06.130Z,101471.88
2022-12-27T18:00:38.470Z,101469.59
2022-12-27T18:03:08.200Z,101468.50
2022-12-27T18:05:39.407Z,101465.09
2022-12-27T18:08:08.064Z,101460.31
2022-12-27T18:10:36.435Z,101461.44
2022-12-27T18:13:05.389Z,101460.31
2022-12-27T18:15:34.534Z,101460.59
2022-12-27T18:18:06.386Z,101454.41
2022-12-27T18:20:40.481Z,101448.78
2022-12-27T18:23:08.734Z,101450.19
2022-12-27T18:25:40.312Z,101458.34
2022-12-27T18:28:15.479Z,101452.44
2022-12-27T18:30:50.139Z,101451.59
2022-12-27T18:33:17.270Z,101452.72
2022-12-27T18:35:46.930Z,101448.50
2022-12-27T18:38:18.334Z,101446.53
2022-12-27T18:40:58.063Z,101441.47
2022-12-27T18:43:24.562Z,101440.34
2022-12-27T18:45:54.736Z,101444.00
2022-12-27T18:48:22.031Z,101441.75
2022-12-27T18:50:51.980Z,101436.69
2022-12-27T18:53:36.003Z,101433.59
2022-12-27T18:56:24.696Z,101431.06
2022-12-27T18:59:28.878Z,101425.16
2022-12-27T19:01:57.755Z,101422.06
2022-12-27T19:04:29.956Z,101426.84
2022-12-27T19:07:12.899Z,101422.31
2022-12-27T19:09:42.412Z,101415.84
2022-12-27T19:12:34.150Z,101410.25
2022-12-27T19:15:01.508Z,101405.75
2022-12-27T19:17:30.452Z,101402.34
2022-12-27T19:20:05.301Z,101407.69
2022-12-27T19:22:34.423Z,101397.28
2022-12-27T19:25:04.469Z,101388.00
2022-12-27T19:27:30.830Z,101383.50
2022-12-27T19:29:57.324Z,101388.56
2022-12-27T19:32:33.238Z,101387.72
2022-12-27T19:35:01.844Z,101393.03
2022-12-27T19:37:29.933Z,101380.38
2022-12-27T19:39:56.349Z,101377.84
2022-12-27T19:42:29.190Z,101377.31
2022-12-27T19:44:55.676Z,101371.94
2022-12-27T19:47:22.378Z,101372.75
2022-12-27T19:49:50.319Z,101366.34
2022-12-27T19:52:27.065Z,101354.78
2022-12-27T19:55:00.585Z,101348.03
2022-12-27T19:57:26.984Z,101344.13
2022-12-27T19:59:53.353Z,101353.13
2022-12-27T20:02:21.151Z,101361.84
2022-12-27T20:04:55.931Z,101355.38
2022-12-27T20:07:24.429Z,101348.06
2022-12-27T20:09:51.180Z,101335.41
2022-12-27T20:12:17.552Z,101340.75
2022-12-27T20:14:43.914Z,101338.50
2022-12-27T20:17:10.326Z,101348.63
2022-12-27T20:19:36.755Z,101343.00
2022-12-27T20:22:03.141Z,101332.84
2022-12-27T20:24:31.426Z,101339.59
2022-12-27T20:26:57.941Z,101339.88
2022-12-27T20:29:24.360Z,101332.88
2022-12-27T20:31:52.219Z,101328.91
2022-12-27T20:34:18.758Z,101325.81
2022-12-27T20:36:45.222Z,101332.84
2022-12-27T20:39:11.589Z,101328.91
2022-12-27T20:41:38.081Z,101319.03
2022-12-27T20:44:05.043Z,101315.09
2022-12-27T20:46:31.444Z,101306.94
2022-12-27T20:48:57.871Z,101314.81
2022-12-27T20:51:27.248Z,101315.94
2022-12-27T20:53:57.607Z,101310.88
2022-12-27T20:56:24.200Z,101301.63
2022-12-27T20:58:50.901Z,101302.16
2022-12-27T21:01:19.825Z,101311.75
2022-12-27T21:03:46.531Z,101315.69
2022-12-27T21:06:18.513Z,101311.75
2022-12-27T21:08:49.098Z,101316.25
2022-12-27T21:11:23.331Z,101316.53
2022-12-27T21:13:50.143Z,101312.31
2022-12-27T21:16:22.140Z,101311.19
2022-12-27T21:18:49.193Z,101309.50
2022-12-27T21:21:19.817Z,101309.19
2022-12-27T21:23:47.040Z,101306.38
2022-12-27T21:26:19.183Z,101301.03
2022-12-27T21:28:45.842Z,101294.03
2022-12-27T21:31:12.863Z,101291.22
2022-12-27T21:33:39.470Z,101291.50
2022-12-27T21:36:08.909Z,101293.19
2022-12-27T21:38:35.708Z,101293.75
2022-12-27T21:41:05.733Z,101300.78
2022-12-27T21:43:33.828Z,101286.16
2022-12-27T21:46:08.395Z,101281.94
2022-12-27T21:48:35.976Z,101283.38
2022-12-27T21:51:08.074Z,101274.09
2022-12-27T21:53:34.644Z,101279.16
2022-12-27T21:56:01.117Z,101274.09
2022-12-27T21:58:30.477Z,101273.78
2022-12-27T22:01:27.448Z,101269.03
2022-12-27T22:03:54.882Z,101259.75
2022-12-27T22:06:24.302Z,101259.19
2022-12-27T22:08:53.340Z,101274.94
2022-12-27T22:11:21.181Z,101261.44
2022-12-27T22:13:47.697Z,101257.50
2022-12-27T22:16:27.742Z,101261.19
2022-12-27T22:18:55.980Z,101255.00
2022-12-27T22:21:27.980Z,101250.75
2022-12-27T22:23:56.674Z,101243.72
2022-12-27T22:26:28.394Z,101241.22
2022-12-27T22:28:55.095Z,101246.00
2022-12-27T22:31:27.019Z,101244.88
2022-12-27T22:33:54.142Z,101250.75
2022-12-27T22:36:23.275Z,101247.09
2022-12-27T22:38:50.751Z,101247.66
2022-12-27T22:41:26.263Z,101248.25
2022-12-27T22:44:13.861Z,101246.56
2022-12-27T22:49:27.706Z,101235.59
2022-12-27T22:51:54.069Z,101240.66
2022-12-27T22:54:20.396Z,101240.91
2022-12-27T22:57:06.699Z,101225.47
2022-12-27T22:59:33.126Z,101222.66
2022-12-27T23:01:59.554Z,101224.31
2022-12-27T23:04:26.051Z,101223.47
2022-12-27T23:06:52.508Z,101220.13
2022-12-27T23:09:18.934Z,101220.41
2022-12-27T23:11:45.333Z,101218.72
2022-12-27T23:14:13.930Z,101222.66
2022-12-27T23:16:45.347Z,101220.41
2022-12-27T23:19:12.668Z,101218.41
2022-12-27T23:21:39.026Z,101217.56
2022-12-27T23:24:05.924Z,101214.78
2022-12-27T23:26:32.493Z,101212.81
2022-12-27T23:28:59.132Z,101210.84
2022-12-27T23:31:26.009Z,101203.78
2022-12-27T23:33:52.628Z,101212.50
2022-12-27T23:36:19.472Z,101197.06
2022-12-27T23:38:45.961Z,101201.81
2022-12-27T23:41:18.059Z,101195.03
2022-12-27T23:43:54.359Z,101197.88
2022-12-27T23:46:27.483Z,101192.22
2022-12-27T23:48:54.968Z,101179.31
2022-12-27T23:51:21.829Z,101185.75
2022-12-27T23:53:48.230Z,101185.16
2022-12-27T23:56:22.776Z,101186.56
2022-12-27T23:58:49.507Z,101174.78
